Time,TemperatureF,DewpointF,PressureIn,WindDirection,WindDirectionDegrees,WindSpeedMPH,WindSpeedGustMPH,Humidity,HourlyPrecipIn,Conditions,Clouds,dailyrainin,SoftwareType,DateUTC
2013-02-25 00:00:00,69.8,67.4,29.95,NE,52,0.0,0.0,92,0.00,,---,0.01,VWS V14.01,2013-02-25 05:00:00,
2013-02-25 00:05:00,69.7,67.3,29.95,NE,52,0.0,0.0,92,0.00,,---,0.00,VWS V14.01,2013-02-25 05:05:00,
2013-02-25 00:10:00,69.7,67.3,29.95,NE,52,0.0,0.0,92,0.00,,---,0.00,VWS V14.01,2013-02-25 05:10:00,
2013-02-25 00:15:00,69.7,67.3,29.95,NE,52,0.0,0.0,92,0.00,,---,0.00,VWS V14.01,2013-02-25 05:15:00,
2013-02-25 00:20:00,69.6,67.2,29.95,NE,52,0.0,0.0,92,0.00,,---,0.00,VWS V14.01,2013-02-25 05:20:00,
2013-02-25 00:25:00,69.2,66.8,29.95,NE,52,0.0,0.0,92,0.00,,---,0.00,VWS V14.01,2013-02-25 05:25:00,
2013-02-25 00:30:00,68.7,66.3,29.94,NE,52,0.0,0.0,92,0.00,,---,0.00,VWS V14.01,2013-02-25 05:30:00,
2013-02-25 00:35:00,68.4,66.0,29.94,NE,52,0.0,0.0,92,0.00,,---,0.00,VWS V14.01,2013-02-25 05:35:00,
2013-02-25 00:40:00,68.2,65.8,29.94,NE,52,0.0,0.0,92,0.00,,---,0.00,VWS V14.01,2013-02-25 05:40:00,
2013-02-25 00:45:00,68.1,66.0,29.92,NE,52,0.0,0.0,93,0.00,,---,0.00,VWS V14.01,2013-02-25 05:45:00,
2013-02-25 00:50:00,68.1,66.0,29.92,NE,52,0.0,0.0,93,0.00,,---,0.00,VWS V14.01,2013-02-25 05:50:00,
2013-02-25 00:55:00,68.1,66.0,29.92,NE,52,0.0,0.0,93,0.00,,---,0.00,VWS V14.01,2013-02-25 05:55:00,
2013-02-25 01:00:00,68.0,65.9,29.93,NE,52,0.0,0.0,93,0.00,,---,0.00,VWS V14.01,2013-02-25 06:00:00,
2013-02-25 01:05:00,68.0,65.9,29.93,NE,52,0.0,0.0,93,0.00,,---,0.00,VWS V14.01,2013-02-25 06:05:00,
2013-02-25 01:10:00,68.1,66.0,29.93,NE,52,0.0,0.0,93,0.00,,---,0.00,VWS V14.01,2013-02-25 06:10:00,
2013-02-25 01:15:00,68.4,66.6,29.93,NE,52,0.0,0.0,94,0.00,,---,0.00,VWS V14.01,2013-02-25 06:15:00,
2013-02-25 01:20:00,68.5,66.4,29.93,NE,52,0.0,0.0,93,0.00,,---,0.00,VWS V14.01,2013-02-25 06:20:00,
2013-02-25 01:25:00,68.5,66.4,29.93,NE,52,0.0,0.0,93,0.00,,---,0.00,VWS V14.01,2013-02-25 06:25:00,
2013-02-25 01:30:00,68.6,66.5,29.94,NE,52,0.0,0.0,93,0.00,,---,0.00,VWS V14.01,2013-02-25 06:30:00,
2013-02-25 01:35:00,68.6,66.5,29.94,NE,52,0.0,0.0,93,0.00,,---,0.00,VWS V14.01,2013-02-25 06:35:00,
2013-02-25 01:40:00,68.6,66.5,29.94,NE,52,0.0,0.0,93,0.00,,---,0.00,VWS V14.01,2013-02-25 06:40:00,
2013-02-25 01:45:00,68.6,66.5,29.92,NE,52,0.0,0.0,93,0.00,,---,0.00,VWS V14.01,2013-02-25 06:45:00,
2013-02-25 01:50:00,68.5,66.4,29.92,NE,52,0.0,0.0,93,0.00,,---,0.00,VWS V14.01,2013-02-25 06:50:00,
2013-02-25 01:55:00,68.3,66.2,29.92,NE,52,0.0,0.0,93,0.00,,---,0.00,VWS V14.01,2013-02-25 06:55:00,
2013-02-25 02:00:00,68.1,66.0,29.92,NE,52,0.0,0.0,93,0.00,,---,0.00,VWS V14.01,2013-02-25 07:00:00,
2013-02-25 02:05:00,68.1,66.3,29.92,NE,52,0.0,0.0,94,0.00,,---,0.00,VWS V14.01,2013-02-25 07:05:00,
2013-02-25 02:10:00,67.9,65.8,29.92,NE,52,0.0,0.0,93,0.00,,---,0.00,VWS V14.01,2013-02-25 07:10:00,
2013-02-25 02:15:00,67.8,65.7,29.91,NE,52,0.0,0.0,93,0.00,,---,0.00,VWS V14.01,2013-02-25 07:15:00,
2013-02-25 02:20:00,67.8,66.0,29.91,NE,52,0.0,0.0,94,0.00,,---,0.00,VWS V14.01,2013-02-25 07:20:00,
2013-02-25 02:25:00,67.7,65.9,29.91,NE,52,0.0,0.0,94,0.00,,---,0.00,VWS V14.01,2013-02-25 07:25:00,
2013-02-25 02:30:00,67.8,66.0,29.89,NE,52,0.0,0.0,94,0.00,,---,0.00,VWS V14.01,2013-02-25 07:30:00,
2013-02-25 02:35:00,68.0,66.2,29.89,NE,52,0.0,0.0,94,0.00,,---,0.00,VWS V14.01,2013-02-25 07:35:00,
2013-02-25 02:40:00,68.1,66.3,29.89,NE,52,0.0,0.0,94,0.00,,---,0.00,VWS V14.01,2013-02-25 07:40:00,
2013-02-25 02:45:00,68.0,66.2,29.89,NE,52,0.0,0.0,94,0.00,,---,0.00,VWS V14.01,2013-02-25 07:45:00,
2013-02-25 02:50:00,68.1,66.3,29.89,NE,52,0.0,0.0,94,0.00,,---,0.00,VWS V14.01,2013-02-25 07:50:00,
2013-02-25 02:55:00,68.2,66.4,29.89,NE,52,0.0,0.0,94,0.00,,---,0.00,VWS V14.01,2013-02-25 07:55:00,
2013-02-25 03:00:00,68.3,66.8,29.89,NE,52,0.0,0.0,95,0.00,,---,0.00,VWS V14.01,2013-02-25 08:00:00,
2013-02-25 03:05:00,68.5,67.0,29.89,NE,52,0.0,0.0,95,0.00,,---,0.00,VWS V14.01,2013-02-25 08:05:00,
2013-02-25 03:10:00,68.6,66.8,29.89,NE,52,0.0,0.0,94,0.00,,---,0.00,VWS V14.01,2013-02-25 08:10:00,
2013-02-25 03:15:00,68.5,66.7,29.90,NE,52,0.0,0.0,94,0.00,,---,0.00,VWS V14.01,2013-02-25 08:15:00,
2013-02-25 03:20:00,68.2,66.4,29.90,NE,52,0.0,0.0,94,0.00,,---,0.00,VWS V14.01,2013-02-25 08:20:00,
2013-02-25 03:25:00,67.9,66.1,29.90,NE,52,0.0,0.0,94,0.00,,---,0.00,VWS V14.01,2013-02-25 08:25:00,
2013-02-25 03:30:00,67.7,65.9,29.89,NE,52,0.0,0.0,94,0.00,,---,0.00,VWS V14.01,2013-02-25 08:30:00,
2013-02-25 03:35:00,67.7,66.2,29.89,NE,52,0.0,0.0,95,0.00,,---,0.00,VWS V14.01,2013-02-25 08:35:00,
2013-02-25 03:40:00,67.9,66.4,29.89,NE,52,0.0,0.0,95,0.00,,---,0.00,VWS V14.01,2013-02-25 08:40:00,
2013-02-25 03:45:00,68.8,67.3,29.87,NE,52,0.0,0.0,95,0.00,,---,0.00,VWS V14.01,2013-02-25 08:45:00,
2013-02-25 03:50:00,69.3,67.8,29.87,NE,52,0.0,0.0,95,0.00,,---,0.00,VWS V14.01,2013-02-25 08:50:00,
2013-02-25 03:55:00,69.4,67.9,29.87,NE,52,0.0,0.0,95,0.00,,---,0.00,VWS V14.01,2013-02-25 08:55:00,
2013-02-25 04:00:00,69.4,67.9,29.88,NE,52,0.0,0.0,95,0.00,,---,0.00,VWS V14.01,2013-02-25 09:00:00,
2013-02-25 04:05:00,69.4,67.9,29.88,NE,52,0.0,0.0,95,0.00,,---,0.00,VWS V14.01,2013-02-25 09:05:00,
2013-02-25 04:10:00,69.4,67.9,29.88,NE,52,0.0,0.0,95,0.00,,---,0.00,VWS V14.01,2013-02-25 09:10:00,
2013-02-25 04:15:00,69.4,67.9,29.88,NE,52,0.0,0.0,95,0.00,,---,0.00,VWS V14.01,2013-02-25 09:15:00,
2013-02-25 04:20:00,69.5,68.0,29.88,NE,52,0.0,0.0,95,0.00,,---,0.00,VWS V14.01,2013-02-25 09:20:00,
2013-02-25 04:25:00,69.5,68.0,29.88,NE,52,0.0,0.0,95,0.00,,---,0.00,VWS V14.01,2013-02-25 09:25:00,
2013-02-25 04:30:00,69.5,68.0,29.88,NE,52,0.0,0.0,95,0.00,,---,0.00,VWS V14.01,2013-02-25 09:30:00,
2013-02-25 04:35:00,69.5,68.0,29.88,NE,52,0.0,0.0,95,0.00,,---,0.00,VWS V14.01,2013-02-25 09:35:00,
2013-02-25 04:40:00,69.5,68.0,29.88,NE,52,0.0,0.0,95,0.00,,---,0.00,VWS V14.01,2013-02-25 09:40:00,
2013-02-25 04:45:00,69.4,67.9,29.87,NE,52,0.0,0.0,95,0.00,,---,0.00,VWS V14.01,2013-02-25 09:45:00,
2013-02-25 04:50:00,69.5,68.0,29.87,NE,52,0.0,0.0,95,0.00,,---,0.00,VWS V14.01,2013-02-25 09:50:00,
2013-02-25 04:55:00,69.4,67.9,29.87,NE,52,0.0,0.0,95,0.00,,---,0.00,VWS V14.01,2013-02-25 09:55:00,
2013-02-25 05:00:00,69.3,67.8,29.88,NE,52,0.0,0.0,95,0.00,,---,0.00,VWS V14.01,2013-02-25 10:00:00,
2013-02-25 05:05:00,69.6,68.1,29.88,NE,52,0.0,0.0,95,0.00,,---,0.00,VWS V14.01,2013-02-25 10:05:00,
2013-02-25 05:10:00,69.8,68.3,29.88,NE,52,0.0,0.0,95,0.00,,---,0.00,VWS V14.01,2013-02-25 10:10:00,
2013-02-25 05:15:00,69.9,68.4,29.87,NE,52,0.0,0.0,95,0.01,,---,0.01,VWS V14.01,2013-02-25 10:15:00,
2013-02-25 05:20:00,70.0,68.5,29.87,NE,52,0.0,0.0,95,0.01,,---,0.01,VWS V14.01,2013-02-25 10:20:00,
2013-02-25 05:25:00,70.2,68.7,29.87,ESE,112,0.0,2.0,95,0.01,,---,0.01,VWS V14.01,2013-02-25 10:25:00,
2013-02-25 05:30:00,70.4,68.9,29.88,ESE,113,0.0,1.0,95,0.01,,---,0.01,VWS V14.01,2013-02-25 10:30:00,
2013-02-25 05:35:00,70.6,69.1,29.88,ESE,113,0.0,0.0,95,0.01,,---,0.01,VWS V14.01,2013-02-25 10:35:00,
2013-02-25 05:40:00,70.6,69.1,29.88,ESE,114,0.0,2.0,95,0.01,,---,0.01,VWS V14.01,2013-02-25 10:40:00,
2013-02-25 05:45:00,70.7,69.2,29.88,ESE,114,1.0,2.0,95,0.01,,---,0.01,VWS V14.01,2013-02-25 10:45:00,
2013-02-25 05:50:00,70.7,69.2,29.88,SE,125,2.0,3.0,95,0.01,,---,0.01,VWS V14.01,2013-02-25 10:50:00,
2013-02-25 05:55:00,70.8,69.3,29.88,ESE,123,2.0,3.0,95,0.01,,---,0.01,VWS V14.01,2013-02-25 10:55:00,
2013-02-25 06:00:00,70.9,69.4,29.88,ESE,116,3.0,4.0,95,0.01,,---,0.01,VWS V14.01,2013-02-25 11:00:00,
2013-02-25 06:05:00,71.0,69.5,29.88,SE,128,5.0,5.0,95,0.01,,---,0.01,VWS V14.01,2013-02-25 11:05:00,
2013-02-25 06:10:00,71.0,69.5,29.88,ESE,108,2.0,6.0,95,0.01,,---,0.01,VWS V14.01,2013-02-25 11:10:00,
2013-02-25 06:15:00,71.0,69.5,29.88,ESE,106,1.0,5.0,95,0.01,,---,0.01,VWS V14.01,2013-02-25 11:15:00,
2013-02-25 06:20:00,71.1,69.6,29.88,ESE,103,3.0,6.0,95,0.00,,---,0.01,VWS V14.01,2013-02-25 11:20:00,
2013-02-25 06:25:00,71.2,69.7,29.88,ESE,103,1.0,4.0,95,0.00,,---,0.01,VWS V14.01,2013-02-25 11:25:00,
2013-02-25 06:30:00,71.3,69.8,29.88,ESE,110,1.0,5.0,95,0.00,,---,0.01,VWS V14.01,2013-02-25 11:30:00,
2013-02-25 06:35:00,71.4,69.9,29.88,ESE,114,1.0,4.0,95,0.00,,---,0.01,VWS V14.01,2013-02-25 11:35:00,
2013-02-25 06:40:00,71.5,70.0,29.88,East,101,1.0,4.0,95,0.00,,---,0.01,VWS V14.01,2013-02-25 11:40:00,
2013-02-25 06:45:00,71.5,70.0,29.88,ESE,107,1.0,4.0,95,0.00,,---,0.01,VWS V14.01,2013-02-25 11:45:00,
2013-02-25 06:50:00,71.5,70.0,29.88,ESE,113,0.0,3.0,95,0.00,,---,0.01,VWS V14.01,2013-02-25 11:50:00,
2013-02-25 06:55:00,71.5,70.0,29.88,ESE,112,2.0,4.0,95,0.00,,---,0.01,VWS V14.01,2013-02-25 11:55:00,
2013-02-25 07:00:00,71.5,70.0,29.88,ESE,119,2.0,5.0,95,0.00,,---,0.01,VWS V14.01,2013-02-25 12:00:00,
2013-02-25 07:05:00,71.5,70.0,29.88,ESE,121,2.0,2.0,95,0.00,,---,0.01,VWS V14.01,2013-02-25 12:05:00,
2013-02-25 07:10:00,71.5,70.0,29.88,ESE,112,2.0,3.0,95,0.00,,---,0.01,VWS V14.01,2013-02-25 12:10:00,
2013-02-25 07:15:00,71.6,70.1,29.89,SE,124,2.0,2.0,95,0.00,,---,0.01,VWS V14.01,2013-02-25 12:15:00,
2013-02-25 07:20:00,71.6,70.1,29.89,ESE,113,3.0,3.0,95,0.00,,---,0.01,VWS V14.01,2013-02-25 12:20:00,
2013-02-25 07:25:00,71.8,70.3,29.89,ESE,113,0.0,2.0,95,0.00,,---,0.01,VWS V14.01,2013-02-25 12:25:00,
2013-02-25 07:30:00,72.0,70.5,29.89,ESE,106,1.0,2.0,95,0.00,,---,0.01,VWS V14.01,2013-02-25 12:30:00,
2013-02-25 07:35:00,72.0,70.5,29.89,ESE,105,0.0,3.0,95,0.00,,---,0.01,VWS V14.01,2013-02-25 12:35:00,
2013-02-25 07:40:00,72.1,70.6,29.89,ESE,105,0.0,1.0,95,0.00,,---,0.01,VWS V14.01,2013-02-25 12:40:00,
2013-02-25 07:45:00,72.3,70.8,29.90,ESE,105,0.0,0.0,95,0.00,,---,0.01,VWS V14.01,2013-02-25 12:45:00,
2013-02-25 07:50:00,72.3,70.8,29.90,ESE,105,0.0,1.0,95,0.00,,---,0.01,VWS V14.01,2013-02-25 12:50:00,
2013-02-25 07:55:00,72.4,70.9,29.90,ESE,105,0.0,0.0,95,0.00,,---,0.01,VWS V14.01,2013-02-25 12:55:00,
2013-02-25 08:00:00,72.5,71.0,29.90,ESE,105,2.0,3.0,95,0.00,,---,0.01,VWS V14.01,2013-02-25 13:00:00,
2013-02-25 08:05:00,72.8,71.3,29.90,ESE,105,1.0,3.0,95,0.00,,---,0.01,VWS V14.01,2013-02-25 13:05:00,
2013-02-25 08:10:00,73.0,71.2,29.90,ESE,105,2.0,3.0,94,0.00,,---,0.01,VWS V14.01,2013-02-25 13:10:00,
2013-02-25 08:15:00,73.2,71.4,29.90,ESE,105,3.0,3.0,94,0.00,,---,0.01,VWS V14.01,2013-02-25 13:15:00,
2013-02-25 08:20:00,73.2,71.4,29.90,ESE,105,1.0,4.0,94,0.00,,---,0.01,VWS V14.01,2013-02-25 13:20:00,
2013-02-25 08:25:00,73.3,71.2,29.90,ESE,105,1.0,3.0,93,0.00,,---,0.01,VWS V14.01,2013-02-25 13:25:00,
2013-02-25 08:30:00,73.6,71.5,29.90,ESE,105,0.0,2.0,93,0.00,,---,0.01,VWS V14.01,2013-02-25 13:30:00,
2013-02-25 08:35:00,73.7,71.6,29.90,ESE,105,1.0,3.0,93,0.00,,---,0.01,VWS V14.01,2013-02-25 13:35:00,
2013-02-25 08:40:00,73.9,71.4,29.90,ESE,105,1.0,2.0,92,0.00,,---,0.01,VWS V14.01,2013-02-25 13:40:00,
2013-02-25 08:45:00,74.2,71.7,29.91,South,186,2.0,3.0,92,0.00,,---,0.01,VWS V14.01,2013-02-25 13:45:00,
2013-02-25 08:50:00,74.4,71.9,29.91,SE,131,0.0,2.0,92,0.00,,---,0.01,VWS V14.01,2013-02-25 13:50:00,
2013-02-25 08:55:00,74.6,71.8,29.91,SE,128,0.0,3.0,91,0.00,,---,0.01,VWS V14.01,2013-02-25 13:55:00,
2013-02-25 09:00:00,74.8,72.0,29.91,SE,128,0.0,2.0,91,0.00,,---,0.01,VWS V14.01,2013-02-25 14:00:00,
2013-02-25 09:06:00,75.1,72.3,29.91,SE,128,0.0,2.0,91,0.00,,---,0.01,VWS V14.01,2013-02-25 14:06:00,
2013-02-25 09:11:00,75.3,72.2,29.91,SE,128,2.0,2.0,90,0.00,,---,0.01,VWS V14.01,2013-02-25 14:11:00,
2013-02-25 09:16:00,75.4,72.3,29.91,SE,128,2.0,3.0,90,0.00,,---,0.01,VWS V14.01,2013-02-25 14:16:00,
2013-02-25 09:21:00,75.4,72.3,29.91,SSE,168,0.0,0.0,90,0.00,,---,0.01,VWS V14.01,2013-02-25 14:21:00,
2013-02-25 09:26:00,75.6,72.5,29.91,SE,124,5.0,5.0,90,0.00,,---,0.01,VWS V14.01,2013-02-25 14:26:00,
2013-02-25 09:31:00,75.7,72.6,29.91,SE,137,4.0,5.0,90,0.00,,---,0.01,VWS V14.01,2013-02-25 14:31:00,
2013-02-25 09:36:00,75.6,72.5,29.91,SSE,149,2.0,3.0,90,0.00,,---,0.01,VWS V14.01,2013-02-25 14:36:00,
2013-02-25 09:41:00,75.7,72.6,29.91,SE,129,2.0,4.0,90,0.00,,---,0.01,VWS V14.01,2013-02-25 14:41:00,
2013-02-25 09:46:00,75.6,72.5,29.91,SE,139,3.0,4.0,90,0.00,,---,0.01,VWS V14.01,2013-02-25 14:46:00,
2013-02-25 09:51:00,75.7,72.6,29.91,SE,141,0.0,1.0,90,0.00,,---,0.01,VWS V14.01,2013-02-25 14:51:00,
2013-02-25 09:56:00,76.0,72.5,29.91,SE,141,1.0,2.0,89,0.00,,---,0.01,VWS V14.01,2013-02-25 14:56:00,
2013-02-25 10:01:00,76.5,73.3,29.91,SW,222,4.0,5.0,90,0.00,,---,0.01,VWS V14.01,2013-02-25 15:01:00,
2013-02-25 10:06:00,76.9,73.1,29.91,SSE,160,1.0,1.0,88,0.00,,---,0.01,VWS V14.01,2013-02-25 15:06:00,
2013-02-25 10:11:00,77.3,73.1,29.91,SSE,155,0.0,2.0,87,0.00,,---,0.01,VWS V14.01,2013-02-25 15:11:00,
2013-02-25 10:16:00,77.5,73.3,29.90,South,179,0.0,3.0,87,0.00,,---,0.01,VWS V14.01,2013-02-25 15:16:00,
2013-02-25 10:21:00,78.0,73.5,29.90,SSW,203,2.0,4.0,86,0.00,,---,0.01,VWS V14.01,2013-02-25 15:21:00,
2013-02-25 10:26:00,78.7,73.8,29.90,SSW,195,1.0,4.0,85,0.00,,---,0.01,VWS V14.01,2013-02-25 15:26:00,
2013-02-25 10:31:00,79.4,73.8,29.90,SSW,202,0.0,2.0,83,0.00,,---,0.01,VWS V14.01,2013-02-25 15:31:00,
2013-02-25 10:36:00,79.4,72.7,29.90,South,171,0.0,4.0,80,0.00,,---,0.01,VWS V14.01,2013-02-25 15:36:00,
2013-02-25 10:41:00,79.3,72.6,29.90,SSE,152,3.0,5.0,80,0.00,,---,0.01,VWS V14.01,2013-02-25 15:41:00,
2013-02-25 10:46:00,79.5,72.8,29.90,SSE,148,0.0,3.0,80,0.00,,---,0.01,VWS V14.01,2013-02-25 15:46:00,
2013-02-25 10:51:00,80.0,72.2,29.90,SSW,206,1.0,4.0,77,0.00,,---,0.01,VWS V14.01,2013-02-25 15:51:00,
2013-02-25 10:56:00,80.3,72.1,29.90,SSE,162,3.0,6.0,76,0.00,,---,0.01,VWS V14.01,2013-02-25 15:56:00,
2013-02-25 11:01:00,80.3,71.7,29.89,SSW,201,2.0,6.0,75,0.00,,---,0.01,VWS V14.01,2013-02-25 16:01:00,
2013-02-25 11:06:00,80.6,71.2,29.89,SE,137,9.0,9.0,73,0.00,,---,0.01,VWS V14.01,2013-02-25 16:06:00,
2013-02-25 11:11:00,81.0,70.3,29.89,SSW,208,3.0,6.0,70,0.00,,---,0.01,VWS V14.01,2013-02-25 16:11:00,
2013-02-25 11:16:00,81.5,69.9,29.89,SSE,161,3.0,5.0,68,0.00,,---,0.01,VWS V14.01,2013-02-25 16:16:00,
2013-02-25 11:21:00,81.6,68.2,29.89,SSE,153,1.0,7.0,64,0.00,,---,0.01,VWS V14.01,2013-02-25 16:21:00,
2013-02-25 11:26:00,82.0,68.2,29.89,SSE,168,4.0,4.0,63,0.00,,---,0.01,VWS V14.01,2013-02-25 16:26:00,
2013-02-25 11:31:00,82.5,68.2,29.89,SW,232,5.0,6.0,62,0.00,,---,0.01,VWS V14.01,2013-02-25 16:31:00,
2013-02-25 11:36:00,83.1,67.8,29.89,SSW,204,3.0,4.0,60,0.00,,---,0.01,VWS V14.01,2013-02-25 16:36:00,
2013-02-25 11:41:00,83.4,67.1,29.89,South,181,4.0,4.0,58,0.00,,---,0.01,VWS V14.01,2013-02-25 16:41:00,
2013-02-25 11:46:00,83.6,67.3,29.89,SSW,197,2.0,6.0,58,0.00,,---,0.01,VWS V14.01,2013-02-25 16:46:00,
2013-02-25 11:51:00,83.5,66.7,29.89,SSW,198,2.0,3.0,57,0.00,,---,0.01,VWS V14.01,2013-02-25 16:51:00,
2013-02-25 11:56:00,83.5,66.7,29.89,South,187,4.0,5.0,57,0.00,,---,0.01,VWS V14.01,2013-02-25 16:56:00,
2013-02-25 12:01:00,83.8,67.0,29.88,SSW,199,4.0,6.0,57,0.00,,---,0.01,VWS V14.01,2013-02-25 17:01:00,
2013-02-25 12:06:00,84.0,67.1,29.88,South,172,1.0,2.0,57,0.00,,---,0.01,VWS V14.01,2013-02-25 17:06:00,
2013-02-25 12:11:00,83.6,65.7,29.88,SW,232,3.0,6.0,55,0.00,,---,0.01,VWS V14.01,2013-02-25 17:11:00,
2013-02-25 12:16:00,83.6,66.8,29.88,South,183,3.0,5.0,57,0.00,,---,0.01,VWS V14.01,2013-02-25 17:16:00,
2013-02-25 12:21:00,83.6,66.8,29.88,SSW,200,0.0,1.0,57,0.00,,---,0.01,VWS V14.01,2013-02-25 17:21:00,
2013-02-25 12:26:00,83.7,66.3,29.88,SSW,208,2.0,3.0,56,0.00,,---,0.01,VWS V14.01,2013-02-25 17:26:00,
2013-02-25 12:31:00,83.5,66.2,29.86,WSW,242,0.0,4.0,56,0.00,,---,0.01,VWS V14.01,2013-02-25 17:31:00,
2013-02-25 12:36:00,83.3,66.0,29.86,SW,222,1.0,3.0,56,0.00,,---,0.01,VWS V14.01,2013-02-25 17:36:00,
2013-02-25 12:41:00,83.2,65.9,29.86,SW,217,5.0,5.0,56,0.00,,---,0.01,VWS V14.01,2013-02-25 17:41:00,
2013-02-25 12:46:00,83.0,66.2,29.86,South,183,0.0,2.0,57,0.00,,---,0.01,VWS V14.01,2013-02-25 17:46:00,
2013-02-25 12:51:00,83.0,66.2,29.86,SW,235,6.0,6.0,57,0.00,,---,0.01,VWS V14.01,2013-02-25 17:51:00,
2013-02-25 12:56:00,83.2,66.9,29.86,SW,227,4.0,4.0,58,0.00,,---,0.01,VWS V14.01,2013-02-25 17:56:00,
2013-02-25 13:01:00,83.4,66.6,29.86,SSW,206,1.0,1.0,57,0.00,,---,0.01,VWS V14.01,2013-02-25 18:01:00,
2013-02-25 13:06:00,83.5,67.7,29.86,SW,227,5.0,6.0,59,0.00,,---,0.01,VWS V14.01,2013-02-25 18:06:00,
2013-02-25 13:11:00,83.3,67.0,29.86,SSE,166,0.0,0.0,58,0.00,,---,0.01,VWS V14.01,2013-02-25 18:11:00,
2013-02-25 13:16:00,83.0,66.7,29.85,SSE,166,3.0,4.0,58,0.00,,---,0.01,VWS V14.01,2013-02-25 18:16:00,
2013-02-25 13:21:00,82.7,66.4,29.85,SSE,160,0.0,2.0,58,0.00,,---,0.01,VWS V14.01,2013-02-25 18:21:00,
2013-02-25 13:26:00,82.7,66.9,29.85,SSE,151,2.0,3.0,59,0.00,,---,0.01,VWS V14.01,2013-02-25 18:26:00,
2013-02-25 13:31:00,83.0,66.2,29.83,SSW,202,0.0,3.0,57,0.00,,---,0.01,VWS V14.01,2013-02-25 18:31:00,
2013-02-25 13:36:00,82.9,66.1,29.83,South,178,0.0,1.0,57,0.00,,---,0.01,VWS V14.01,2013-02-25 18:36:00,
2013-02-25 13:41:00,82.7,66.4,29.83,South,184,2.0,2.0,58,0.00,,---,0.01,VWS V14.01,2013-02-25 18:41:00,
2013-02-25 13:46:00,82.4,66.7,29.83,SSE,164,5.0,6.0,59,0.00,,---,0.01,VWS V14.01,2013-02-25 18:46:00,
2013-02-25 13:51:00,81.8,68.4,29.83,South,177,1.0,2.0,64,0.00,,---,0.01,VWS V14.01,2013-02-25 18:51:00,
2013-02-25 13:56:00,81.3,68.4,29.83,South,183,0.0,0.0,65,0.00,,---,0.01,VWS V14.01,2013-02-25 18:56:00,
2013-02-25 14:01:00,80.5,69.8,29.84,SSE,148,3.0,7.0,70,0.00,,---,0.01,VWS V14.01,2013-02-25 19:01:00,
2013-02-25 14:06:00,78.9,69.9,29.84,SSE,152,6.0,6.0,74,0.00,,---,0.01,VWS V14.01,2013-02-25 19:06:00,
2013-02-25 14:11:00,78.0,70.2,29.84,SE,144,5.0,6.0,77,0.00,,---,0.01,VWS V14.01,2013-02-25 19:11:00,
2013-02-25 14:16:00,77.6,70.6,29.84,SE,131,6.0,6.0,79,0.00,,---,0.01,VWS V14.01,2013-02-25 19:16:00,
2013-02-25 14:21:00,77.4,70.8,29.84,SE,141,7.0,7.0,80,0.00,,---,0.01,VWS V14.01,2013-02-25 19:21:00,
2013-02-25 14:26:00,77.5,70.8,29.84,SE,145,3.0,6.0,80,0.00,,---,0.01,VWS V14.01,2013-02-25 19:26:00,
2013-02-25 14:31:00,77.4,71.1,29.83,ESE,119,7.0,7.0,81,0.00,,---,0.01,VWS V14.01,2013-02-25 19:31:00,
2013-02-25 14:36:00,77.3,71.0,29.83,SE,125,6.0,9.0,81,0.00,,---,0.01,VWS V14.01,2013-02-25 19:36:00,
2013-02-25 14:41:00,77.1,71.2,29.83,ESE,118,5.0,7.0,82,0.00,,---,0.01,VWS V14.01,2013-02-25 19:41:00,
2013-02-25 14:46:00,76.8,70.9,29.83,SE,140,6.0,6.0,82,0.00,,---,0.01,VWS V14.01,2013-02-25 19:46:00,
2013-02-25 14:51:00,76.8,71.2,29.83,SE,126,4.0,6.0,83,0.00,,---,0.01,VWS V14.01,2013-02-25 19:51:00,
2013-02-25 14:56:00,76.8,71.2,29.83,SE,137,2.0,3.0,83,0.00,,---,0.01,VWS V14.01,2013-02-25 19:56:00,
2013-02-25 15:01:00,77.1,71.9,29.83,SE,132,5.0,5.0,84,0.00,,---,0.01,VWS V14.01,2013-02-25 20:01:00,
2013-02-25 15:06:00,77.2,72.0,29.83,SE,140,4.0,5.0,84,0.00,,---,0.01,VWS V14.01,2013-02-25 20:06:00,
2013-02-25 15:11:00,77.1,71.9,29.83,SE,124,9.0,11.0,84,0.00,,---,0.01,VWS V14.01,2013-02-25 20:11:00,
2013-02-25 15:16:00,77.1,71.9,29.83,SE,135,6.0,6.0,84,0.00,,---,0.01,VWS V14.01,2013-02-25 20:16:00,
2013-02-25 15:21:00,77.2,72.0,29.83,SE,138,6.0,8.0,84,0.00,,---,0.01,VWS V14.01,2013-02-25 20:21:00,
2013-02-25 15:26:00,76.9,72.1,29.83,SSE,147,6.0,12.0,85,0.00,,---,0.01,VWS V14.01,2013-02-25 20:26:00,
2013-02-25 15:31:00,76.8,71.9,29.82,SE,125,6.0,10.0,85,0.00,,---,0.01,VWS V14.01,2013-02-25 20:31:00,
2013-02-25 15:36:00,76.5,72.0,29.82,ESE,121,9.0,9.0,86,0.00,,---,0.01,VWS V14.01,2013-02-25 20:36:00,
2013-02-25 15:41:00,76.1,71.9,29.82,ESE,119,9.0,9.0,87,0.00,,---,0.01,VWS V14.01,2013-02-25 20:41:00,
2013-02-25 15:46:00,75.9,71.8,29.82,SE,135,6.0,6.0,87,0.00,,---,0.01,VWS V14.01,2013-02-25 20:46:00,
2013-02-25 15:51:00,75.9,72.1,29.82,ESE,118,7.0,7.0,88,0.00,,---,0.01,VWS V14.01,2013-02-25 20:51:00,
2013-02-25 15:56:00,76.0,72.2,29.82,SE,136,2.0,4.0,88,0.00,,---,0.01,VWS V14.01,2013-02-25 20:56:00,
2013-02-25 16:01:00,76.0,71.9,29.82,ESE,121,9.0,9.0,87,0.00,,---,0.01,VWS V14.01,2013-02-25 21:01:00,
2013-02-25 16:05:00,76.0,72.2,29.82,ESE,113,6.0,6.0,88,0.00,,---,0.01,VWS V14.01,2013-02-25 21:05:00,
2013-02-25 16:10:00,75.9,72.1,29.82,SE,127,5.0,7.0,88,0.00,,---,0.01,VWS V14.01,2013-02-25 21:10:00,
2013-02-25 16:15:00,75.9,72.1,29.82,ESE,119,7.0,7.0,88,0.00,,---,0.01,VWS V14.01,2013-02-25 21:15:00,
2013-02-25 16:20:00,76.1,71.9,29.82,SE,124,9.0,9.0,87,0.00,,---,0.01,VWS V14.01,2013-02-25 21:20:00,
2013-02-25 16:25:00,76.1,71.9,29.82,SE,132,7.0,7.0,87,0.00,,---,0.01,VWS V14.01,2013-02-25 21:25:00,
2013-02-25 16:30:00,76.2,72.1,29.81,SE,132,5.0,5.0,87,0.00,,---,0.01,VWS V14.01,2013-02-25 21:30:00,
2013-02-25 16:35:00,76.0,71.9,29.81,SE,130,9.0,9.0,87,0.00,,---,0.01,VWS V14.01,2013-02-25 21:35:00,
2013-02-25 16:40:00,75.9,72.1,29.81,SSW,199,4.0,7.0,88,0.00,,---,0.01,VWS V14.01,2013-02-25 21:40:00,
2013-02-25 16:45:00,75.4,71.9,29.82,SSW,197,10.0,10.0,89,0.05,,---,0.06,VWS V14.01,2013-02-25 21:45:00,
2013-02-25 16:50:00,75.0,71.9,29.82,South,189,3.0,5.0,90,0.07,,---,0.08,VWS V14.01,2013-02-25 21:50:00,
2013-02-25 16:55:00,74.6,71.5,29.82,South,169,3.0,4.0,90,0.08,,---,0.09,VWS V14.01,2013-02-25 21:55:00,
2013-02-25 17:00:00,74.4,71.6,29.81,SSE,155,3.0,4.0,91,0.09,,---,0.10,VWS V14.01,2013-02-25 22:00:00,
2013-02-25 17:05:00,74.5,71.7,29.81,SSE,154,2.0,3.0,91,0.09,,---,0.10,VWS V14.01,2013-02-25 22:05:00,
2013-02-25 17:10:00,74.5,71.7,29.81,SSE,148,3.0,3.0,91,0.09,,---,0.10,VWS V14.01,2013-02-25 22:10:00,
2013-02-25 17:15:00,74.6,71.8,29.80,SE,139,3.0,9.0,91,0.09,,---,0.10,VWS V14.01,2013-02-25 22:15:00,
2013-02-25 17:20:00,74.7,72.2,29.80,SE,139,6.0,6.0,92,0.09,,---,0.10,VWS V14.01,2013-02-25 22:20:00,
2013-02-25 17:25:00,74.7,72.2,29.80,SSE,150,6.0,6.0,92,0.09,,---,0.10,VWS V14.01,2013-02-25 22:25:00,
2013-02-25 17:30:00,74.7,72.2,29.81,SSE,150,5.0,11.0,92,0.09,,---,0.10,VWS V14.01,2013-02-25 22:30:00,
2013-02-25 17:35:00,74.7,71.9,29.81,SSE,150,5.0,12.0,91,0.09,,---,0.10,VWS V14.01,2013-02-25 22:35:00,
2013-02-25 17:40:00,74.2,71.4,29.81,SE,139,7.0,12.0,91,0.09,,---,0.10,VWS V14.01,2013-02-25 22:40:00,
2013-02-25 17:45:00,73.7,70.6,29.81,SSE,149,5.0,11.0,90,0.09,,---,0.10,VWS V14.01,2013-02-25 22:45:00,
2013-02-25 17:50:00,73.4,70.0,29.81,SE,143,4.0,7.0,89,0.04,,---,0.10,VWS V14.01,2013-02-25 22:50:00,
2013-02-25 17:55:00,73.8,70.4,29.81,SSE,166,11.0,12.0,89,0.02,,---,0.10,VWS V14.01,2013-02-25 22:55:00,
2013-02-25 18:00:00,74.6,71.2,29.82,SSE,148,11.0,13.0,89,0.01,,---,0.10,VWS V14.01,2013-02-25 23:00:00,
2013-02-25 18:05:00,74.8,71.3,29.82,SSE,149,11.0,17.0,89,0.00,,---,0.10,VWS V14.01,2013-02-25 23:05:00,
2013-02-25 18:10:00,74.9,71.4,29.82,SSE,165,9.0,15.0,89,0.00,,---,0.10,VWS V14.01,2013-02-25 23:10:00,
2013-02-25 18:15:00,74.8,71.3,29.82,SE,136,6.0,15.0,89,0.00,,---,0.10,VWS V14.01,2013-02-25 23:15:00,
2013-02-25 18:20:00,74.7,71.2,29.82,ESE,121,9.0,15.0,89,0.00,,---,0.10,VWS V14.01,2013-02-25 23:20:00,
2013-02-25 18:25:00,74.6,71.5,29.82,SE,124,7.0,14.0,90,0.00,,---,0.10,VWS V14.01,2013-02-25 23:25:00,
2013-02-25 18:30:00,74.4,71.3,29.82,SE,127,10.0,16.0,90,0.00,,---,0.10,VWS V14.01,2013-02-25 23:30:00,
2013-02-25 18:35:00,74.4,71.6,29.82,ESE,110,11.0,15.0,91,0.00,,---,0.10,VWS V14.01,2013-02-25 23:35:00,
2013-02-25 18:40:00,74.3,71.5,29.82,SE,129,10.0,16.0,91,0.00,,---,0.10,VWS V14.01,2013-02-25 23:40:00,
2013-02-25 18:45:00,74.4,71.6,29.82,ESE,123,9.0,14.0,91,0.00,,---,0.10,VWS V14.01,2013-02-25 23:45:00,
2013-02-25 18:50:00,74.6,71.8,29.82,SE,128,11.0,13.0,91,0.00,,---,0.10,VWS V14.01,2013-02-25 23:50:00,
2013-02-25 18:55:00,74.7,71.9,29.82,ESE,110,8.0,11.0,91,0.00,,---,0.10,VWS V14.01,2013-02-25 23:55:00,
2013-02-25 19:00:00,74.6,71.8,29.83,SE,134,9.0,10.0,91,0.00,,---,0.10,VWS V14.01,2013-02-26 00:00:00,
2013-02-25 19:05:00,74.6,71.8,29.83,SSE,154,10.0,10.0,91,0.00,,---,0.10,VWS V14.01,2013-02-26 00:05:00,
2013-02-25 19:10:00,74.6,71.8,29.83,SE,134,6.0,11.0,91,0.00,,---,0.10,VWS V14.01,2013-02-26 00:10:00,
2013-02-25 19:15:00,74.8,72.0,29.82,SE,138,9.0,13.0,91,0.00,,---,0.10,VWS V14.01,2013-02-26 00:15:00,
2013-02-25 19:20:00,74.8,72.0,29.82,SE,125,7.0,14.0,91,0.00,,---,0.10,VWS V14.01,2013-02-26 00:20:00,
2013-02-25 19:25:00,74.6,71.8,29.82,SSE,150,6.0,15.0,91,0.00,,---,0.10,VWS V14.01,2013-02-26 00:25:00,
2013-02-25 19:30:00,74.3,71.5,29.83,SSE,162,10.0,13.0,91,0.00,,---,0.10,VWS V14.01,2013-02-26 00:30:00,
2013-02-25 19:35:00,74.1,71.3,29.83,SE,124,5.0,10.0,91,0.00,,---,0.10,VWS V14.01,2013-02-26 00:35:00,
2013-02-25 19:40:00,74.0,71.2,29.83,SE,127,6.0,10.0,91,0.00,,---,0.10,VWS V14.01,2013-02-26 00:40:00,
2013-02-25 19:45:00,73.9,71.1,29.83,SE,141,6.0,12.0,91,0.00,,---,0.10,VWS V14.01,2013-02-26 00:45:00,
2013-02-25 19:50:00,73.7,70.6,29.83,SSE,153,4.0,7.0,90,0.00,,---,0.10,VWS V14.01,2013-02-26 00:50:00,
2013-02-25 19:55:00,73.7,70.6,29.83,SE,134,5.0,10.0,90,0.00,,---,0.10,VWS V14.01,2013-02-26 00:55:00,
2013-02-25 20:00:00,73.9,70.8,29.83,SE,141,4.0,10.0,90,0.00,,---,0.10,VWS V14.01,2013-02-26 01:00:00,
2013-02-25 20:05:00,74.0,70.9,29.83,SE,130,0.0,7.0,90,0.00,,---,0.10,VWS V14.01,2013-02-26 01:05:00,
2013-02-25 20:10:00,74.0,70.6,29.83,SE,140,4.0,6.0,89,0.00,,---,0.10,VWS V14.01,2013-02-26 01:10:00,
2013-02-25 20:15:00,74.0,70.6,29.84,SSW,200,0.0,7.0,89,0.00,,---,0.10,VWS V14.01,2013-02-26 01:15:00,
2013-02-25 20:20:00,74.0,70.6,29.84,SSE,158,0.0,4.0,89,0.00,,---,0.10,VWS V14.01,2013-02-26 01:20:00,
2013-02-25 20:25:00,74.1,70.7,29.84,SSE,158,2.0,5.0,89,0.00,,---,0.10,VWS V14.01,2013-02-26 01:25:00,
2013-02-25 20:30:00,74.2,70.8,29.84,SSE,150,0.0,8.0,89,0.00,,---,0.10,VWS V14.01,2013-02-26 01:30:00,
2013-02-25 20:35:00,74.2,70.8,29.84,SSE,152,2.0,6.0,89,0.00,,---,0.10,VWS V14.01,2013-02-26 01:35:00,
2013-02-25 20:40:00,74.1,70.7,29.84,SE,145,10.0,11.0,89,0.00,,---,0.10,VWS V14.01,2013-02-26 01:40:00,
2013-02-25 20:45:00,74.2,70.8,29.83,SE,143,1.0,11.0,89,0.00,,---,0.10,VWS V14.01,2013-02-26 01:45:00,
2013-02-25 20:50:00,74.2,70.8,29.83,SE,146,0.0,10.0,89,0.00,,---,0.10,VWS V14.01,2013-02-26 01:50:00,
2013-02-25 20:55:00,74.0,70.6,29.83,SE,146,2.0,9.0,89,0.00,,---,0.10,VWS V14.01,2013-02-26 01:55:00,
2013-02-25 21:00:00,74.0,70.6,29.83,SSE,163,4.0,7.0,89,0.00,,---,0.10,VWS V14.01,2013-02-26 02:00:00,
2013-02-25 21:05:00,74.1,70.7,29.83,South,188,2.0,7.0,89,0.00,,---,0.10,VWS V14.01,2013-02-26 02:05:00,
2013-02-25 21:10:00,74.0,70.6,29.83,South,171,0.0,7.0,89,0.00,,---,0.10,VWS V14.01,2013-02-26 02:10:00,
2013-02-25 21:15:00,74.1,70.7,29.83,South,183,3.0,10.0,89,0.00,,---,0.10,VWS V14.01,2013-02-26 02:15:00,
2013-02-25 21:20:00,74.1,70.7,29.83,SSE,159,2.0,7.0,89,0.00,,---,0.10,VWS V14.01,2013-02-26 02:20:00,
2013-02-25 21:25:00,74.2,70.8,29.83,SE,139,3.0,7.0,89,0.00,,---,0.10,VWS V14.01,2013-02-26 02:25:00,
2013-02-25 21:30:00,74.1,70.7,29.83,SSE,150,3.0,7.0,89,0.00,,---,0.10,VWS V14.01,2013-02-26 02:30:00,
2013-02-25 21:35:00,74.0,70.6,29.83,SSE,149,3.0,4.0,89,0.00,,---,0.10,VWS V14.01,2013-02-26 02:35:00,
2013-02-25 21:40:00,74.1,70.7,29.83,SSE,150,0.0,10.0,89,0.00,,---,0.10,VWS V14.01,2013-02-26 02:40:00,
2013-02-25 21:45:00,74.1,70.7,29.83,SSE,160,0.0,6.0,89,0.00,,---,0.10,VWS V14.01,2013-02-26 02:45:00,
2013-02-25 21:50:00,74.1,70.7,29.83,SSE,167,3.0,6.0,89,0.00,,---,0.10,VWS V14.01,2013-02-26 02:50:00,
2013-02-25 21:55:00,74.2,70.8,29.83,South,178,5.0,7.0,89,0.00,,---,0.10,VWS V14.01,2013-02-26 02:55:00,
2013-02-25 22:00:00,74.2,70.4,29.83,SE,132,3.0,6.0,88,0.00,,---,0.10,VWS V14.01,2013-02-26 03:00:00,
2013-02-25 22:05:00,74.1,70.3,29.83,SSE,158,5.0,9.0,88,0.00,,---,0.10,VWS V14.01,2013-02-26 03:05:00,
2013-02-25 22:10:00,74.1,70.3,29.83,SSE,158,3.0,8.0,88,0.00,,---,0.10,VWS V14.01,2013-02-26 03:10:00,
2013-02-25 22:15:00,74.1,70.7,29.83,SSE,151,2.0,6.0,89,0.00,,---,0.10,VWS V14.01,2013-02-26 03:15:00,
2013-02-25 22:20:00,74.1,70.7,29.83,SSE,148,4.0,9.0,89,0.00,,---,0.10,VWS V14.01,2013-02-26 03:20:00,
2013-02-25 22:25:00,74.1,70.7,29.83,SW,217,0.0,8.0,89,0.00,,---,0.10,VWS V14.01,2013-02-26 03:25:00,
2013-02-25 22:30:00,74.1,70.7,29.83,South,171,0.0,11.0,89,0.00,,---,0.10,VWS V14.01,2013-02-26 03:30:00,
2013-02-25 22:35:00,74.1,70.7,29.83,SSE,152,3.0,7.0,89,0.00,,---,0.10,VWS V14.01,2013-02-26 03:35:00,
2013-02-25 22:40:00,74.0,70.6,29.83,SE,134,3.0,10.0,89,0.00,,---,0.10,VWS V14.01,2013-02-26 03:40:00,
2013-02-25 22:45:00,74.1,70.7,29.82,SSE,154,4.0,12.0,89,0.00,,---,0.10,VWS V14.01,2013-02-26 03:45:00,
2013-02-25 22:50:00,74.0,70.6,29.82,SSE,158,5.0,9.0,89,0.00,,---,0.10,VWS V14.01,2013-02-26 03:50:00,
2013-02-25 22:55:00,74.0,70.6,29.82,SSE,158,5.0,7.0,89,0.00,,---,0.10,VWS V14.01,2013-02-26 03:55:00,
2013-02-25 23:00:00,74.0,70.6,29.83,SSE,164,2.0,7.0,89,0.00,,---,0.10,VWS V14.01,2013-02-26 04:00:00,
2013-02-25 23:05:00,74.0,70.6,29.83,South,189,4.0,7.0,89,0.00,,---,0.10,VWS V14.01,2013-02-26 04:05:00,
2013-02-25 23:10:00,73.9,70.5,29.83,South,185,2.0,8.0,89,0.00,,---,0.10,VWS V14.01,2013-02-26 04:10:00,
2013-02-25 23:15:00,73.9,70.5,29.83,SSE,160,5.0,6.0,89,0.00,,---,0.10,VWS V14.01,2013-02-26 04:15:00,
2013-02-25 23:20:00,73.9,70.5,29.83,SE,140,5.0,8.0,89,0.00,,---,0.10,VWS V14.01,2013-02-26 04:20:00,
2013-02-25 23:25:00,73.9,70.5,29.83,SSE,155,5.0,10.0,89,0.00,,---,0.10,VWS V14.01,2013-02-26 04:25:00,
2013-02-25 23:30:00,73.9,70.5,29.83,SSE,160,5.0,6.0,89,0.00,,---,0.10,VWS V14.01,2013-02-26 04:30:00,
2013-02-25 23:35:00,74.0,70.6,29.83,SE,139,0.0,6.0,89,0.00,,---,0.10,VWS V14.01,2013-02-26 04:35:00,
2013-02-25 23:40:00,73.9,70.5,29.83,SE,145,1.0,10.0,89,0.00,,---,0.10,VWS V14.01,2013-02-26 04:40:00,
2013-02-25 23:45:00,73.9,70.5,29.83,SE,141,4.0,8.0,89,0.00,,---,0.10,VWS V14.01,2013-02-26 04:45:00,
2013-02-25 23:50:00,73.9,70.5,29.83,South,189,0.0,5.0,89,0.00,,---,0.10,VWS V14.01,2013-02-26 04:50:00,
2013-02-25 23:55:00,73.8,70.4,29.83,SSW,212,0.0,4.0,89,0.00,,---,0.10,VWS V14.01,2013-02-26 04:55:00,